Time;durP1;ratioP1;P1;durP2;ratioP2;P2;SDS_P1;SDS_P2;PMS_P1;PMS_P2;Temp;Humidity;BMP_temperature;BMP_pressure;BME280_temperature;BME280_humidity;BME280_pressure;Samples;Min_cycle;Max_cycle;Signal;HPM_P1;HPM_P2
2023/04/08 00:01:00;;;;;;;;;;;1.20;99.90;;;;;;5046997;28;19994;-42
2023/04/08 00:03:26;;;;;;;;;;;1.20;99.90;;;;;;5046702;28;19920;-43
2023/04/08 00:05:52;;;;;;;;;;;1.10;99.90;;;;;;5044198;28;19920;-43
2023/04/08 00:08:17;;;;;;;;;;;1.20;99.90;;;;;;5043593;28;20308;-43
2023/04/08 00:10:43;;;;;;;;;;;1.10;99.90;;;;;;5047326;28;19921;-44
2023/04/08 00:13:08;;;;;;;;;;;1.00;99.90;;;;;;5029755;28;20415;-42
2023/04/08 00:15:35;;;;;;;;;;;1.00;99.90;;;;;;5047468;28;19928;-43
2023/04/08 00:18:00;;;;;;;;;;;1.00;99.90;;;;;;5047446;28;19927;-43
2023/04/08 00:20:26;;;;;;;;;;;1.00;99.90;;;;;;5045105;28;19920;-42
2023/04/08 00:22:52;;;;;;;;;;;0.90;99.90;;;;;;5046111;28;19924;-43
2023/04/08 00:25:17;;;;;;;;;;;0.90;99.90;;;;;;5047022;28;19923;-42
2023/04/08 00:27:43;;;;;;;;;;;1.00;99.90;;;;;;5047087;28;19990;-43
2023/04/08 00:30:09;;;;;;;;;;;1.00;99.90;;;;;;5046769;28;20325;-43
2023/04/08 00:32:35;;;;;;;;;;;1.00;99.90;;;;;;5044707;28;19956;-43
2023/04/08 00:35:01;;;;;;;;;;;0.90;99.90;;;;;;5045686;28;20017;-43
2023/04/08 00:37:27;;;;;;;;;;;0.90;99.90;;;;;;5046289;28;19936;-44
2023/04/08 00:39:53;;;;;;;;;;;1.40;99.90;;;;;;5046569;28;19925;-44
2023/04/08 00:42:19;;;;;;;;;;;1.00;99.90;;;;;;5039259;28;19917;-43
2023/04/08 00:44:45;;;;;;;;;;;0.90;99.90;;;;;;5046234;28;20367;-42
2023/04/08 00:47:11;;;;;;;;;;;1.00;99.90;;;;;;5046050;28;19924;-42
2023/04/08 00:49:36;;;;;;;;;;;0.90;99.90;;;;;;5023520;28;20458;-42
2023/04/08 00:52:02;;;;;;;;;;;1.00;99.90;;;;;;5045948;28;19916;-43
2023/04/08 00:54:27;;;;;;;;;;;1.00;99.90;;;;;;5046262;28;20039;-42
2023/04/08 00:56:53;;;;;;;;;;;1.00;99.90;;;;;;5046466;28;20621;-43
2023/04/08 00:59:19;;;;;;;;;;;1.00;99.90;;;;;;5040258;28;19921;-42
2023/04/08 01:01:44;;;;;;;;;;;1.40;99.90;;;;;;5045133;28;19920;-43
2023/04/08 01:04:10;;;;;;;;;;;1.00;99.90;;;;;;5045762;28;19959;-43
2023/04/08 01:06:41;;;;;;;;;;;1.00;99.90;;;;;;5046199;28;20031;-42
2023/04/08 01:09:07;;;;;;;;;;;1.10;99.90;;;;;;5045055;28;19960;-42
2023/04/08 01:11:34;;;;;;;;;;;1.10;99.90;;;;;;5039683;28;19996;-44
2023/04/08 01:14:00;;;;;;;;;;;1.00;99.90;;;;;;5043345;28;19920;-42
2023/04/08 01:16:27;;;;;;;;;;;1.10;99.90;;;;;;5043679;28;19964;-43
2023/04/08 01:18:54;;;;;;;;;;;1.10;99.90;;;;;;5044789;28;20655;-43
2023/04/08 01:21:20;;;;;;;;;;;1.10;99.90;;;;;;5045720;28;19921;-42
2023/04/08 01:23:56;;;;;;;;;;;1.00;99.90;;;;;;5046122;28;19921;-43
2023/04/08 01:26:25;;;;;;;;;;;1.10;99.90;;;;;;5045721;28;19927;-42
2023/04/08 01:28:53;;;;;;;;;;;1.10;99.90;;;;;;5042431;28;19931;-42
2023/04/08 01:31:19;;;;;;;;;;;1.00;99.90;;;;;;5045342;28;20389;-44
2023/04/08 01:33:46;;;;;;;;;;;1.00;99.90;;;;;;5044241;28;19921;-43
2023/04/08 01:36:13;;;;;;;;;;;1.00;99.90;;;;;;5045522;28;19982;-42
2023/04/08 01:38:38;;;;;;;;;;;2.20;99.90;;;;;;5044515;28;19931;-43
2023/04/08 01:41:04;;;;;;;;;;;1.00;99.90;;;;;;5040790;28;19920;-45
2023/04/08 01:43:31;;;;;;;;;;;1.20;99.90;;;;;;5042632;28;19978;-42
2023/04/08 01:45:57;;;;;;;;;;;1.10;99.90;;;;;;5027278;28;19993;-44
2023/04/08 01:48:23;;;;;;;;;;;1.20;99.90;;;;;;5044212;28;19921;-43
2023/04/08 01:50:50;;;;;;;;;;;1.30;99.90;;;;;;5044808;28;19928;-43
2023/04/08 01:53:15;;;;;;;;;;;1.20;99.90;;;;;;5044776;28;19921;-43
2023/04/08 01:55:42;;;;;;;;;;;1.10;99.90;;;;;;5044177;28;19997;-43
2023/04/08 01:58:08;;;;;;;;;;;1.10;99.90;;;;;;5043532;28;19984;-43
2023/04/08 02:00:34;;;;;;;;;;;1.00;99.90;;;;;;5041508;28;20378;-44
2023/04/08 02:03:01;;;;;;;;;;;1.00;99.90;;;;;;5040743;28;20347;-43
2023/04/08 02:05:27;;;;;;;;;;;1.00;99.90;;;;;;5045692;28;20008;-42
2023/04/08 02:07:52;;;;;;;;;;;0.90;99.90;;;;;;5045207;28;20343;-42
2023/04/08 02:10:18;;;;;;;;;;;0.90;99.90;;;;;;5045069;28;19928;-42
2023/04/08 02:12:45;;;;;;;;;;;0.90;99.90;;;;;;5042807;28;19924;-43
2023/04/08 02:15:11;;;;;;;;;;;0.90;99.90;;;;;;5045474;28;19920;-42
2023/04/08 02:17:42;;;;;;;;;;;0.90;99.90;;;;;;5026723;28;19942;-43
2023/04/08 02:20:30;;;;;;;;;;;0.90;99.90;;;;;;5043591;28;20298;-42
2023/04/08 02:23:04;;;;;;;;;;;0.90;99.90;;;;;;5041010;28;19927;-44
2023/04/08 02:25:33;;;;;;;;;;;0.90;99.90;;;;;;5045304;28;20247;-42
2023/04/08 02:27:59;;;;;;;;;;;0.80;99.90;;;;;;5040016;28;20378;-43
2023/04/08 02:30:25;;;;;;;;;;;0.80;99.90;;;;;;5040249;28;19966;-45
2023/04/08 02:32:52;;;;;;;;;;;0.80;99.90;;;;;;5046135;28;20496;-42
2023/04/08 02:35:18;;;;;;;;;;;0.80;99.90;;;;;;5041961;28;19921;-43
2023/04/08 02:37:46;;;;;;;;;;;0.80;99.90;;;;;;5040343;28;19932;-42
2023/04/08 02:40:25;;;;;;;;;;;0.70;99.90;;;;;;5042115;28;19925;-43
2023/04/08 02:42:51;;;;;;;;;;;0.70;99.90;;;;;;5038403;28;20572;-45
2023/04/08 02:45:17;;;;;;;;;;;0.70;99.90;;;;;;5045154;28;19931;-44
2023/04/08 02:47:43;;;;;;;;;;;0.60;99.90;;;;;;5042935;28;20334;-43
2023/04/08 02:50:09;;;;;;;;;;;0.70;99.90;;;;;;5043792;28;19921;-44
2023/04/08 02:52:34;;;;;;;;;;;0.60;99.90;;;;;;5038861;28;19921;-42
2023/04/08 02:55:00;;;;;;;;;;;0.70;99.90;;;;;;5045973;28;20401;-43
2023/04/08 02:57:25;;;;;;;;;;;0.70;99.90;;;;;;5045673;28;19929;-49
2023/04/08 02:59:51;;;;;;;;;;;0.60;99.90;;;;;;5046719;28;20510;-44
2023/04/08 03:02:17;;;;;;;;;;;0.70;99.90;;;;;;5045043;28;19920;-48
2023/04/08 03:04:42;;;;;;;;;;;0.70;99.90;;;;;;5047555;28;19921;-45
2023/04/08 03:07:08;;;;;;;;;;;1.30;99.90;;;;;;5044887;28;19920;-45
2023/04/08 03:09:33;;;;;;;;;;;0.80;99.90;;;;;;5047620;28;20751;-45
2023/04/08 03:11:59;;;;;;;;;;;0.80;99.90;;;;;;5047944;28;19921;-45
2023/04/08 03:14:25;;;;;;;;;;;0.70;99.90;;;;;;5047806;28;20003;-45
2023/04/08 03:16:50;;;;;;;;;;;0.70;99.90;;;;;;5043588;28;20298;-44
2023/04/08 03:19:16;;;;;;;;;;;0.70;99.90;;;;;;5029713;28;19970;-44
2023/04/08 03:21:41;;;;;;;;;;;0.60;99.90;;;;;;5047936;28;20008;-45
2023/04/08 03:24:07;;;;;;;;;;;0.50;99.90;;;;;;5047904;28;19917;-45
2023/04/08 03:26:32;;;;;;;;;;;0.50;99.90;;;;;;5048351;28;19999;-44
2023/04/08 03:28:58;;;;;;;;;;;0.60;99.90;;;;;;5045840;28;19921;-44
2023/04/08 03:31:24;;;;;;;;;;;0.50;99.90;;;;;;5043696;28;19921;-44
2023/04/08 03:33:50;;;;;;;;;;;0.50;99.90;;;;;;5047993;28;19927;-44
2023/04/08 03:36:15;;;;;;;;;;;0.50;99.90;;;;;;5046955;28;19932;-45
2023/04/08 03:38:43;;;;;;;;;;;0.50;99.90;;;;;;5047973;28;20424;-44
2023/04/08 03:41:08;;;;;;;;;;;0.40;99.90;;;;;;5048479;28;20305;-45
2023/04/08 03:43:34;;;;;;;;;;;0.50;99.90;;;;;;5046875;28;19920;-44
2023/04/08 03:45:59;;;;;;;;;;;0.90;99.90;;;;;;5047882;28;20038;-44
2023/04/08 03:48:25;;;;;;;;;;;0.40;99.90;;;;;;5047053;28;19931;-46
2023/04/08 03:50:50;;;;;;;;;;;0.50;99.90;;;;;;5048005;28;19927;-47
2023/04/08 03:53:16;;;;;;;;;;;0.40;99.90;;;;;;5047520;28;20671;-44
2023/04/08 03:55:42;;;;;;;;;;;0.30;99.90;;;;;;5045277;28;19920;-44
2023/04/08 03:58:07;;;;;;;;;;;0.30;99.90;;;;;;5046525;28;19922;-43
2023/04/08 04:00:34;;;;;;;;;;;0.20;99.90;;;;;;5029236;28;19966;-44
2023/04/08 04:03:00;;;;;;;;;;;0.30;99.90;;;;;;5047029;28;19920;-44
2023/04/08 04:05:25;;;;;;;;;;;0.30;99.90;;;;;;5045905;28;20062;-44
2023/04/08 04:07:51;;;;;;;;;;;0.30;99.90;;;;;;5047018;28;20007;-44
2023/04/08 04:10:16;;;;;;;;;;;0.30;99.90;;;;;;5044723;28;20378;-45
2023/04/08 04:12:43;;;;;;;;;;;0.30;99.90;;;;;;5041174;28;20260;-44
2023/04/08 04:15:09;;;;;;;;;;;0.30;99.90;;;;;;5047252;28;19921;-45
2023/04/08 04:17:35;;;;;;;;;;;0.30;99.90;;;;;;5047097;28;20285;-44
2023/04/08 04:20:02;;;;;;;;;;;0.40;99.90;;;;;;5043535;28;19925;-45
2023/04/08 04:22:28;;;;;;;;;;;0.60;99.90;;;;;;5045290;28;19983;-46
2023/04/08 04:24:53;;;;;;;;;;;0.30;99.90;;;;;;5047036;28;20605;-44
2023/04/08 04:27:19;;;;;;;;;;;0.40;99.90;;;;;;5041506;28;20642;-45
2023/04/08 04:29:44;;;;;;;;;;;0.40;99.90;;;;;;5045575;28;19955;-44
2023/04/08 04:32:10;;;;;;;;;;;0.40;99.90;;;;;;5045860;28;20162;-45
2023/04/08 04:34:35;;;;;;;;;;;0.50;99.90;;;;;;5045716;28;19947;-45
2023/04/08 04:37:01;;;;;;;;;;;0.50;99.90;;;;;;5045694;28;19968;-44
2023/04/08 04:39:27;;;;;;;;;;;0.70;99.90;;;;;;5047153;28;19932;-45
2023/04/08 04:41:52;;;;;;;;;;;0.60;99.90;;;;;;5046792;28;19928;-45
2023/04/08 04:44:18;;;;;;;;;;;0.60;99.90;;;;;;5046749;28;19939;-44
2023/04/08 04:46:44;;;;;;;;;;;0.80;99.90;;;;;;5047150;28;20011;-44
2023/04/08 04:49:09;;;;;;;;;;;0.80;99.90;;;;;;5042893;28;19928;-45
2023/04/08 04:51:35;;;;;;;;;;;0.80;99.90;;;;;;5046985;28;19920;-47
2023/04/08 04:54:01;;;;;;;;;;;1.00;99.90;;;;;;5046739;28;19927;-46
2023/04/08 04:56:26;;;;;;;;;;;0.90;99.90;;;;;;5044032;28;19928;-46
2023/04/08 04:58:52;;;;;;;;;;;1.00;99.90;;;;;;5045406;28;19927;-44
2023/04/08 05:01:17;;;;;;;;;;;1.10;99.90;;;;;;5044812;28;19920;-44
2023/04/08 05:03:43;;;;;;;;;;;1.10;99.90;;;;;;5046336;28;20343;-44
2023/04/08 05:06:08;;;;;;;;;;;1.20;99.90;;;;;;5045677;28;19921;-44
2023/04/08 05:08:34;;;;;;;;;;;4.00;99.90;;;;;;5046461;28;19947;-44
2023/04/08 05:11:01;;;;;;;;;;;1.40;99.90;;;;;;5046574;28;19917;-46
2023/04/08 05:13:27;;;;;;;;;;;1.50;99.90;;;;;;5044461;28;20055;-45
2023/04/08 05:15:52;;;;;;;;;;;1.60;99.90;;;;;;5040966;28;19979;-45
2023/04/08 05:18:18;;;;;;;;;;;3.00;99.90;;;;;;5044620;28;19968;-44
2023/04/08 05:20:44;;;;;;;;;;;1.90;99.90;;;;;;5046691;28;19916;-45
2023/04/08 05:23:09;;;;;;;;;;;2.00;99.90;;;;;;5028214;28;19967;-45
2023/04/08 05:25:35;;;;;;;;;;;2.10;99.90;;;;;;5046378;28;20324;-47
2023/04/08 05:28:01;;;;;;;;;;;2.30;99.90;;;;;;5039218;28;19947;-45
2023/04/08 05:30:26;;;;;;;;;;;2.40;99.90;;;;;;5046403;28;20003;-44
2023/04/08 05:32:52;;;;;;;;;;;2.60;99.90;;;;;;5043110;28;19991;-44
2023/04/08 05:35:17;;;;;;;;;;;2.90;99.90;;;;;;5046166;28;20113;-44
2023/04/08 05:37:43;;;;;;;;;;;3.20;99.90;;;;;;5045646;28;19924;-44
2023/04/08 05:40:09;;;;;;;;;;;3.20;99.90;;;;;;5042817;28;20024;-44
2023/04/08 05:42:34;;;;;;;;;;;3.60;99.90;;;;;;5045703;28;19928;-45
2023/04/08 05:45:00;;;;;;;;;;;3.70;99.90;;;;;;5043823;28;19923;-45
2023/04/08 05:47:25;;;;;;;;;;;4.10;99.90;;;;;;5043215;28;19975;-44
2023/04/08 05:49:51;;;;;;;;;;;4.60;99.90;;;;;;5045653;28;19928;-45
2023/04/08 05:52:17;;;;;;;;;;;4.80;99.90;;;;;;5043980;28;19921;-46
2023/04/08 05:54:43;;;;;;;;;;;5.30;99.90;;;;;;5043480;28;19921;-46
2023/04/08 05:57:08;;;;;;;;;;;5.50;99.90;;;;;;5039238;28;20025;-44
2023/04/08 05:59:34;;;;;;;;;;;5.40;99.90;;;;;;5041604;28;19943;-45
2023/04/08 06:02:00;;;;;;;;;;;6.30;99.90;;;;;;5043395;28;19920;-44
2023/04/08 06:04:25;;;;;;;;;;;6.20;99.90;;;;;;5044145;28;19916;-44
2023/04/08 06:06:51;;;;;;;;;;;6.20;99.90;;;;;;5043869;28;20290;-44
2023/04/08 06:09:16;;;;;;;;;;;6.50;99.90;;;;;;5041447;28;20000;-44
2023/04/08 06:11:42;;;;;;;;;;;7.70;99.90;;;;;;5043563;28;20069;-44
2023/04/08 06:14:07;;;;;;;;;;;6.00;99.90;;;;;;5043161;28;19921;-45
2023/04/08 06:16:33;;;;;;;;;;;5.80;99.90;;;;;;5045563;28;19925;-44
2023/04/08 06:18:59;;;;;;;;;;;6.80;99.90;;;;;;5044303;28;20716;-44
2023/04/08 06:21:25;;;;;;;;;;;7.20;99.90;;;;;;5043774;28;19920;-44
2023/04/08 06:23:50;;;;;;;;;;;7.50;99.90;;;;;;5045175;28;19928;-45
2023/04/08 06:26:16;;;;;;;;;;;7.00;99.90;;;;;;5044388;28;20275;-44
2023/04/08 06:28:42;;;;;;;;;;;7.90;99.90;;;;;;5045131;28;20325;-44
2023/04/08 06:31:08;;;;;;;;;;;8.90;99.90;;;;;;5047325;28;19982;-44
2023/04/08 06:33:33;;;;;;;;;;;10.00;99.90;;;;;;5047962;28;19920;-45
2023/04/08 06:36:06;;;;;;;;;;;11.10;99.90;;;;;;5047901;28;20314;-44
2023/04/08 06:38:31;;;;;;;;;;;11.90;99.90;;;;;;5042393;28;19964;-45
2023/04/08 06:41:04;;;;;;;;;;;12.20;99.90;;;;;;5028270;28;20389;-45
2023/04/08 06:43:30;;;;;;;;;;;12.10;99.90;;;;;;5026110;28;20100;-45
2023/04/08 06:45:55;;;;;;;;;;;12.80;99.90;;;;;;5028756;28;19921;-44
2023/04/08 06:48:22;;;;;;;;;;;13.70;99.90;;;;;;5027181;28;20372;-45
2023/04/08 06:50:48;;;;;;;;;;;12.30;99.90;;;;;;5028659;28;20176;-44
2023/04/08 06:53:13;;;;;;;;;;;12.40;99.90;;;;;;5028445;28;19959;-48
2023/04/08 06:55:39;;;;;;;;;;;11.90;99.90;;;;;;5028177;28;20003;-44
2023/04/08 06:58:05;;;;;;;;;;;12.00;99.90;;;;;;5028348;28;19928;-45
2023/04/08 07:00:31;;;;;;;;;;;11.60;99.90;;;;;;5028043;28;20423;-45
2023/04/08 07:02:56;;;;;;;;;;;11.70;99.90;;;;;;5028554;28;19975;-44
2023/04/08 07:05:22;;;;;;;;;;;11.50;99.90;;;;;;5028676;28;19964;-45
2023/04/08 07:07:47;;;;;;;;;;;11.50;99.90;;;;;;5026642;28;19927;-45
2023/04/08 07:10:13;;;;;;;;;;;10.60;99.90;;;;;;5027976;28;20012;-45
2023/04/08 07:12:38;;;;;;;;;;;10.70;99.90;;;;;;5028059;28;19917;-45
2023/04/08 07:15:05;;;;;;;;;;;9.70;99.90;;;;;;5028293;28;20318;-45
2023/04/08 07:17:31;;;;;;;;;;;9.40;99.90;;;;;;5026794;28;19972;-44
2023/04/08 07:19:57;;;;;;;;;;;;;;;;;;5028056;28;20003;-45
2023/04/08 07:22:22;;;;;;;;;;;8.80;99.90;;;;;;5027608;28;20035;-45
2023/04/08 07:24:48;;;;;;;;;;;8.70;99.90;;;;;;5028316;28;19921;-44
2023/04/08 07:27:15;;;;;;;;;;;8.80;99.90;;;;;;5027601;28;19921;-45
2023/04/08 07:29:41;;;;;;;;;;;8.80;99.90;;;;;;5028231;28;19920;-45
2023/04/08 07:32:06;;;;;;;;;;;8.90;99.90;;;;;;5026092;28;20023;-45
2023/04/08 07:34:33;;;;;;;;;;;9.00;99.90;;;;;;5027947;28;19920;-45
2023/04/08 07:36:59;;;;;;;;;;;9.10;99.90;;;;;;5028257;28;20036;-44
2023/04/08 07:39:25;;;;;;;;;;;9.30;99.90;;;;;;5025602;28;20019;-45
2023/04/08 07:41:50;;;;;;;;;;;9.60;99.90;;;;;;5027825;28;19921;-44
2023/04/08 07:44:16;;;;;;;;;;;9.60;99.90;;;;;;5027541;28;19992;-45
2023/04/08 07:46:41;;;;;;;;;;;9.70;99.90;;;;;;5027625;28;20314;-45
2023/04/08 07:49:08;;;;;;;;;;;10.20;99.90;;;;;;5025880;28;20271;-46
2023/04/08 07:51:33;;;;;;;;;;;9.80;99.90;;;;;;5027842;28;20389;-45
2023/04/08 07:53:59;;;;;;;;;;;10.30;99.90;;;;;;5027863;28;19917;-45
2023/04/08 07:56:25;;;;;;;;;;;9.80;99.90;;;;;;5027741;28;19968;-44
2023/04/08 07:58:50;;;;;;;;;;;10.10;99.90;;;;;;5023352;28;19921;-45
2023/04/08 08:01:18;;;;;;;;;;;10.20;99.90;;;;;;5022858;28;19955;-45
2023/04/08 08:03:44;;;;;;;;;;;10.10;99.90;;;;;;5022256;28;19921;-46
2023/04/08 08:06:10;;;;;;;;;;;10.30;99.90;;;;;;5026368;28;19928;-46
2023/04/08 08:08:36;;;;;;;;;;;10.60;99.90;;;;;;5023136;28;20438;-45
2023/04/08 08:11:01;;;;;;;;;;;10.00;99.90;;;;;;5026920;28;19917;-45
2023/04/08 08:13:27;;;;;;;;;;;10.20;99.90;;;;;;5025358;28;20355;-45
2023/04/08 08:15:53;;;;;;;;;;;11.10;99.90;;;;;;5023227;28;19979;-45
2023/04/08 08:18:18;;;;;;;;;;;10.10;99.90;;;;;;5023429;28;20128;-45
2023/04/08 08:20:44;;;;;;;;;;;10.10;99.90;;;;;;5039681;28;20005;-45
2023/04/08 08:23:09;;;;;;;;;;;9.70;99.90;;;;;;5027359;28;20592;-45
2023/04/08 08:25:35;;;;;;;;;;;9.70;99.90;;;;;;5026772;28;19920;-45
2023/04/08 08:28:01;;;;;;;;;;;9.30;99.90;;;;;;5016038;28;20364;-45
2023/04/08 08:30:26;;;;;;;;;;;9.30;99.90;;;;;;5015869;28;20006;-46
2023/04/08 08:32:52;;;;;;;;;;;9.20;99.90;;;;;;5011743;28;19925;-45
2023/04/08 08:35:17;;;;;;;;;;;9.00;99.90;;;;;;5011859;28;19921;-46
2023/04/08 08:37:43;;;;;;;;;;;9.00;99.90;;;;;;5015138;28;20009;-45
2023/04/08 08:40:09;;;;;;;;;;;9.50;99.90;;;;;;5041677;28;19920;-45
2023/04/08 08:42:35;;;;;;;;;;;9.10;99.90;;;;;;5041035;28;20015;-48
2023/04/08 08:45:01;;;;;;;;;;;9.10;99.90;;;;;;5044540;28;19928;-45
2023/04/08 08:47:27;;;;;;;;;;;9.20;99.90;;;;;;5040075;28;19928;-44
2023/04/08 08:49:52;;;;;;;;;;;9.10;99.90;;;;;;5009593;28;20090;-45
2023/04/08 08:52:18;;;;;;;;;;;9.00;99.90;;;;;;5037457;28;19970;-44
2023/04/08 08:54:45;;;;;;;;;;;9.10;99.90;;;;;;5041054;28;20003;-45
2023/04/08 08:57:19;;;;;;;;;;;9.10;99.90;;;;;;5042899;28;19974;-47
2023/04/08 08:59:47;;;;;;;;;;;9.10;99.90;;;;;;5033499;28;19999;-44
2023/04/08 09:02:23;;;;;;;;;;;9.20;99.90;;;;;;5045609;28;20405;-45
2023/04/08 09:05:02;;;;;;;;;;;9.20;99.90;;;;;;5033137;28;20294;-44
2023/04/08 09:07:28;;;;;;;;;;;9.20;99.90;;;;;;5045147;28;19921;-44
2023/04/08 09:09:55;;;;;;;;;;;9.40;99.90;;;;;;5045680;28;20751;-44
2023/04/08 09:12:23;;;;;;;;;;;9.50;99.90;;;;;;5045871;28;19917;-45
2023/04/08 09:14:49;;;;;;;;;;;9.60;99.90;;;;;;5045482;28;19920;-46
2023/04/08 09:17:15;;;;;;;;;;;9.50;99.90;;;;;;5041956;28;19930;-44
2023/04/08 09:20:00;;;;;;;;;;;9.40;99.90;;;;;;5042106;28;20382;-44
2023/04/08 09:22:25;;;;;;;;;;;9.50;99.90;;;;;;5044086;28;19920;-45
2023/04/08 09:24:51;;;;;;;;;;;9.60;99.90;;;;;;5043937;28;20717;-46
2023/04/08 09:27:32;;;;;;;;;;;9.60;99.90;;;;;;5041351;28;19921;-44
2023/04/08 09:30:12;;;;;;;;;;;9.70;99.90;;;;;;5045418;28;19920;-46
2023/04/08 09:32:47;;;;;;;;;;;9.70;99.90;;;;;;5042777;28;19920;-45
2023/04/08 09:35:15;;;;;;;;;;;9.70;99.90;;;;;;5037866;28;19920;-45
2023/04/08 09:37:41;;;;;;;;;;;9.70;99.90;;;;;;5045445;28;19982;-44
2023/04/08 09:40:07;;;;;;;;;;;9.80;99.90;;;;;;5043936;28;19947;-45
2023/04/08 09:42:33;;;;;;;;;;;9.80;99.90;;;;;;5042769;28;19928;-45
2023/04/08 09:44:59;;;;;;;;;;;9.90;99.90;;;;;;5045067;28;19921;-44
2023/04/08 09:47:27;;;;;;;;;;;9.70;99.90;;;;;;5043492;28;20472;-46
2023/04/08 09:50:02;;;;;;;;;;;10.30;99.90;;;;;;5044952;28;20354;-45
2023/04/08 09:52:39;;;;;;;;;;;9.60;99.90;;;;;;5043058;28;19995;-45
2023/04/08 09:55:07;;;;;;;;;;;9.60;99.90;;;;;;5045226;28;20392;-46
2023/04/08 09:57:50;;;;;;;;;;;9.50;99.90;;;;;;5045568;28;19943;-44
2023/04/08 10:00:16;;;;;;;;;;;9.50;99.90;;;;;;5045052;28;19924;-45
2023/04/08 10:03:00;;;;;;;;;;;9.90;99.90;;;;;;5045442;28;20468;-47
2023/04/08 10:05:26;;;;;;;;;;;9.50;99.90;;;;;;5003288;28;19970;-50
2023/04/08 10:08:34;;;;;;;12.33;8.80;;;9.40;99.90;;;;;;5062435;27;1963623;-48
2023/04/08 10:11:00;;;;;;;13.10;9.15;;;9.80;99.90;;;;;;5107356;27;20065;-58
2023/04/08 10:13:27;;;;;;;15.65;9.10;;;9.90;99.90;;;;;;5116365;27;20042;-55
2023/04/08 10:16:17;;;;;;;14.35;10.23;;;10.00;99.90;;;;;;5106295;27;20040;-58
2023/04/08 10:18:43;;;;;;;12.15;9.32;;;10.20;99.90;;;;;;5108433;27;20031;-55
2023/04/08 10:21:35;;;;;;;12.50;9.70;;;10.30;99.90;;;;;;5119880;27;20130;-55
2023/04/08 10:24:05;;;;;;;12.50;9.50;;;10.50;99.90;;;;;;5120610;27;20035;-56
2023/04/08 10:26:36;;;;;;;13.90;9.60;;;10.50;99.90;;;;;;5102548;27;20339;-54
2023/04/08 10:29:17;;;;;;;12.75;10.05;;;10.60;99.90;;;;;;5098596;27;20035;-58
2023/04/08 10:31:47;;;;;;;13.25;10.13;;;10.70;99.90;;;;;;5118975;27;20042;-55
2023/04/08 10:34:21;;;;;;;11.43;8.77;;;10.90;99.90;;;;;;5096698;27;20035;-55
2023/04/08 10:36:48;;;;;;;11.63;8.80;;;11.00;99.90;;;;;;5096046;27;20031;-51
2023/04/08 10:39:15;;;;;;;12.15;9.55;;;11.00;99.90;;;;;;5100826;27;20046;-60
2023/04/08 10:41:45;;;;;;;12.30;9.50;;;11.10;99.90;;;;;;5102710;27;20706;-59
2023/04/08 10:44:29;;;;;;;14.48;10.27;;;11.00;99.90;;;;;;5099379;27;20508;-50
2023/04/08 10:46:55;;;;;;;15.02;9.80;;;10.80;99.90;;;;;;5095779;27;20043;-55
2023/04/08 10:49:21;;;;;;;14.20;10.27;;;10.50;99.90;;;;;;5080036;27;20318;-56
2023/04/08 10:51:47;;;;;;;15.23;11.32;;;10.80;99.90;;;;;;5078912;27;20040;-52
2023/04/08 10:54:15;;;;;;;16.25;11.57;;;10.80;99.90;;;;;;5099514;27;20270;-51
2023/04/08 10:56:49;;;;;;;15.18;10.85;;;10.70;99.90;;;;;;5093326;27;20038;-50
2023/04/08 10:59:29;;;;;;;15.80;11.77;;;10.70;99.90;;;;;;5100035;27;20035;-56
2023/04/08 11:02:04;;;;;;;15.70;11.88;;;10.60;99.90;;;;;;5104721;27;20043;-49
2023/04/08 11:04:30;;;;;;;18.33;12.10;;;10.50;99.90;;;;;;5018011;28;20051;-49
2023/04/08 11:06:57;;;;;;;17.45;11.85;;;10.40;99.90;;;;;;5034918;28;20053;-50
2023/04/08 11:09:22;;;;;;;17.05;12.77;;;10.70;99.90;;;;;;5035433;28;20037;-56
2023/04/08 11:11:49;;;;;;;17.45;11.98;;;10.20;99.90;;;;;;5038377;28;20331;-49
2023/04/08 11:14:18;;;;;;;16.50;12.30;;;10.80;99.90;;;;;;5030893;28;20166;-49
2023/04/08 11:16:44;;;;;;;17.58;11.95;;;10.40;99.90;;;;;;5038836;28;20049;-56
2023/04/08 11:19:13;;;;;;;21.58;13.13;;;10.30;99.90;;;;;;5029730;28;20041;-54
2023/04/08 11:21:50;;;;;;;18.42;12.32;;;10.40;99.90;;;;;;5027270;28;20083;-50
2023/04/08 11:24:28;;;;;;;18.63;12.93;;;10.40;99.90;;;;;;5019940;28;21037;-53
2023/04/08 11:26:53;;;;;;;21.08;14.82;;;10.40;99.90;;;;;;5025539;28;20103;-53
2023/04/08 11:29:29;;;;;;;19.90;13.60;;;10.50;99.90;;;;;;5028253;28;20037;-48
2023/04/08 11:31:55;;;;;;;17.52;12.38;;;10.50;99.90;;;;;;5019597;28;20080;-50
2023/04/08 11:34:23;;;;;;;21.30;13.93;;;10.90;99.90;;;;;;5018742;28;20180;-46
2023/04/08 11:36:49;;;;;;;22.38;14.93;;;10.40;99.90;;;;;;5026566;28;20037;-51
2023/04/08 11:39:15;;;;;;;21.55;14.70;;;10.30;99.90;;;;;;5028413;28;20044;-51
2023/04/08 11:41:47;;;;;;;20.42;14.73;;;10.30;99.90;;;;;;5025579;28;20391;-53
2023/04/08 11:44:13;;;;;;;22.55;15.43;;;10.80;99.90;;;;;;5028229;28;20306;-47
2023/04/08 11:46:39;;;;;;;24.90;17.05;;;10.10;99.90;;;;;;5013162;28;20041;-51
2023/04/08 11:49:07;;;;;;;24.88;15.55;;;10.20;99.90;;;;;;5019418;28;20121;-57
2023/04/08 11:51:34;;;;;;;24.95;17.35;;;10.30;99.90;;;;;;5027776;28;20049;-49
2023/04/08 11:54:05;;;;;;;25.58;16.63;;;10.30;99.90;;;;;;5022085;28;20510;-53
2023/04/08 11:56:45;;;;;;;24.02;16.83;;;10.30;99.90;;;;;;5024328;28;20081;-53
2023/04/08 11:59:11;;;;;;;29.63;19.15;;;10.20;99.90;;;;;;5024010;28;20041;-46
2023/04/08 12:01:37;;;;;;;29.10;19.13;;;10.30;99.90;;;;;;5025851;28;20055;-59
2023/04/08 12:04:03;;;;;;;30.90;19.80;;;10.10;99.90;;;;;;4993823;28;20059;-60
2023/04/08 12:06:30;;;;;;;30.10;19.05;;;10.00;99.90;;;;;;5017354;28;20076;-59
2023/04/08 12:08:59;;;;;;;29.33;19.45;;;10.00;99.90;;;;;;5025296;28;20183;-61
2023/04/08 12:11:25;;;;;;;29.77;20.13;;;10.00;99.90;;;;;;5014818;28;20029;-60
2023/04/08 12:13:51;;;;;;;29.90;20.38;;;10.00;99.90;;;;;;5030604;28;20450;-56
2023/04/08 12:16:18;;;;;;;35.35;21.60;;;10.00;99.90;;;;;;5006182;28;20538;-56
2023/04/08 12:18:44;;;;;;;30.70;20.38;;;10.00;99.90;;;;;;5017456;28;20550;-58
2023/04/08 12:21:10;;;;;;;30.70;18.98;;;10.00;99.90;;;;;;5033289;28;20033;-59
2023/04/08 12:23:36;;;;;;;30.05;19.40;;;10.00;99.90;;;;;;5026725;28;20026;-59
2023/04/08 12:26:01;;;;;;;29.65;19.23;;;9.20;99.90;;;;;;5008277;28;20471;-58
2023/04/08 12:28:27;;;;;;;29.88;18.95;;;9.90;99.90;;;;;;5013991;28;20041;-58
2023/04/08 12:31:02;;;;;;;26.15;18.70;;;9.90;99.90;;;;;;5022376;28;20167;-57
2023/04/08 12:33:29;;;;;;;30.08;20.73;;;9.90;99.90;;;;;;5021204;28;20036;-58
2023/04/08 12:35:57;;;;;;;30.80;20.95;;;10.00;99.90;;;;;;5022599;28;20045;-58
2023/04/08 12:38:22;;;;;;;31.10;21.10;;;10.00;99.90;;;;;;5026533;28;20080;-59
2023/04/08 12:40:48;;;;;;;29.83;22.13;;;10.10;99.90;;;;;;5011272;28;20475;-58
2023/04/08 12:43:14;;;;;;;31.30;20.85;;;10.10;99.90;;;;;;5014221;28;20112;-47
2023/04/08 12:45:40;;;;;;;33.30;22.60;;;9.90;99.90;;;;;;5001195;28;20530;-47
2023/04/08 12:48:06;;;;;;;33.55;23.45;;;10.10;99.90;;;;;;5028373;28;20068;-46
2023/04/08 12:50:31;;;;;;;32.55;23.40;;;10.10;99.90;;;;;;5029363;28;20080;-49
2023/04/08 12:52:57;;;;;;;32.55;23.23;;;10.10;99.90;;;;;;5026827;28;20033;-49
2023/04/08 12:55:23;;;;;;;33.58;24.23;;;10.10;99.90;;;;;;5026605;28;20079;-46
2023/04/08 12:57:51;;;;;;;38.75;26.58;;;10.10;99.90;;;;;;5023563;28;20076;-46
2023/04/08 13:00:17;;;;;;;35.95;26.08;;;10.10;99.90;;;;;;5024133;28;20030;-47
2023/04/08 13:02:43;;;;;;;40.17;25.00;;;10.10;99.90;;;;;;5023465;28;20040;-60
2023/04/08 13:05:09;;;;;;;34.45;25.42;;;10.20;99.90;;;;;;5030304;28;20037;-58
2023/04/08 13:07:35;;;;;;;34.90;24.35;;;10.20;99.90;;;;;;5033328;28;20061;-58
2023/04/08 13:10:02;;;;;;;32.80;24.02;;;10.30;99.90;;;;;;5037014;28;20761;-57
2023/04/08 13:12:28;;;;;;;31.02;22.17;;;10.30;99.90;;;;;;5032767;28;20037;-54
2023/04/08 13:14:54;;;;;;;31.25;22.98;;;10.40;99.90;;;;;;5037975;28;20041;-49
2023/04/08 13:17:20;;;;;;;32.35;23.15;;;10.50;99.90;;;;;;5034439;28;20041;-50
2023/04/08 13:19:48;;;;;;;33.97;24.80;;;10.60;99.90;;;;;;5034164;28;20084;-49
2023/04/08 13:22:14;;;;;;;32.30;21.45;;;10.60;99.90;;;;;;5032434;28;20049;-50
2023/04/08 13:24:40;;;;;;;31.45;22.83;;;10.70;99.90;;;;;;5031788;28;20040;-49
2023/04/08 13:27:06;;;;;;;32.25;24.00;;;10.80;99.90;;;;;;5034696;28;20091;-49
2023/04/08 13:29:31;;;;;;;34.80;25.08;;;11.00;99.90;;;;;;5038740;28;20049;-49
2023/04/08 13:31:57;;;;;;;37.00;26.25;;;10.90;99.90;;;;;;5027027;28;20045;-49
2023/04/08 13:34:23;;;;;;;32.22;24.80;;;10.90;99.90;;;;;;5037290;28;20574;-49
2023/04/08 13:36:48;;;;;;;32.25;24.38;;;11.00;99.90;;;;;;5034893;28;20041;-51
2023/04/08 13:39:14;;;;;;;32.70;23.83;;;11.00;99.90;;;;;;5028450;28;20406;-49
2023/04/08 13:41:40;;;;;;;39.42;29.70;;;11.00;99.90;;;;;;5034207;28;20051;-48
2023/04/08 13:44:05;;;;;;;40.05;29.17;;;11.10;99.90;;;;;;5032549;28;20039;-49
2023/04/08 13:46:31;;;;;;;37.33;28.52;;;11.10;99.90;;;;;;5026479;28;20049;-51
2023/04/08 13:48:57;;;;;;;38.95;30.40;;;11.20;99.90;;;;;;5033364;28;20796;-50
2023/04/08 13:51:23;;;;;;;38.60;31.10;;;11.30;99.90;;;;;;5037117;28;20059;-49